Time;durP1;ratioP1;P1;durP2;ratioP2;P2;SDS_P1;SDS_P2;PMS_P1;PMS_P2;Temp;Humidity;BMP_temperature;BMP_pressure;BME280_temperature;BME280_humidity;BME280_pressure;Samples;Min_cycle;Max_cycle;Signal;HPM_P1;HPM_P2
2021/10/09 00:00:59;;;;;;;38.30;16.85;;;;;;;-149.78;100.00;50299.34;5043121;28;20037;-75
2021/10/09 00:03:25;;;;;;;34.80;16.15;;;;;;;-149.78;100.00;50268.03;5063080;28;20064;-74
2021/10/09 00:05:51;;;;;;;43.88;18.10;;;;;;;-149.78;100.00;50270.00;5022424;28;20045;-75
2021/10/09 00:08:18;;;;;;;36.75;16.38;;;;;;;-149.78;100.00;50285.66;5055172;28;20025;-74
2021/10/09 00:10:45;;;;;;;41.63;17.60;;;;;;;-149.78;100.00;50260.22;5064403;28;20123;-75
2021/10/09 00:13:12;;;;;;;39.58;16.92;;;;;;;-149.78;100.00;50271.97;5054000;28;20030;-75
2021/10/09 00:15:37;;;;;;;36.55;17.35;;;;;;;-149.78;100.00;50273.91;5068234;28;20029;-75
2021/10/09 00:18:03;;;;;;;38.70;17.17;;;;;;;-149.78;100.00;50264.13;5070152;28;20051;-75
2021/10/09 00:20:30;;;;;;;47.97;19.27;;;;;;;-149.78;100.00;50322.81;5074396;28;20138;-75
2021/10/09 00:22:57;;;;;;;45.88;18.92;;;;;;;-149.78;100.00;50299.34;5059359;28;20369;-75
2021/10/09 00:25:24;;;;;;;40.45;18.20;;;;;;;-149.78;100.00;50236.75;5052376;28;20112;-74
2021/10/09 00:27:49;;;;;;;42.25;18.00;;;;;;;-149.78;100.00;50279.78;5052362;28;20345;-75
2021/10/09 00:30:15;;;;;;;41.35;18.65;;;;;;;-149.78;100.00;50281.75;5068012;28;20035;-75
2021/10/09 00:32:41;;;;;;;39.45;16.75;;;;;;;-149.78;100.00;50283.69;5053770;28;20025;-75
2021/10/09 00:35:07;;;;;;;43.10;18.35;;;;;;;-149.78;100.00;50279.78;5060150;28;20083;-75
2021/10/09 00:37:33;;;;;;;40.08;16.92;;;;;;;-149.78;100.00;50291.50;5068182;28;20048;-75
2021/10/09 00:39:59;;;;;;;43.90;18.48;;;;;;;-149.78;100.00;50266.09;5071246;28;20032;-74
2021/10/09 00:42:25;;;;;;;37.95;16.15;;;;;;;-149.78;100.00;50256.31;5059374;28;20029;-79
2021/10/09 00:44:54;;;;;;;43.53;17.15;;;;;;;-149.78;100.00;50297.38;5068623;28;20083;-79
2021/10/09 00:47:23;;;;;;;37.40;16.90;;;;;;;-149.78;100.00;50287.59;5068841;28;20036;-75
2021/10/09 00:49:50;;;;;;;42.95;18.52;;;;;;;-149.78;100.00;50264.13;5056134;28;20140;-75
2021/10/09 00:52:17;;;;;;;38.80;16.77;;;;;;;-149.78;100.00;50248.50;5052311;28;20136;-79
2021/10/09 00:54:46;;;;;;;42.58;17.13;;;;;;;-149.78;100.00;50303.25;5052599;28;20033;-79
2021/10/09 00:57:16;;;;;;;47.22;18.13;;;;;;;-149.78;100.00;50291.50;5067272;28;20056;-80
2021/10/09 00:59:43;;;;;;;39.38;17.20;;;;;;;-149.78;100.00;50275.88;5063060;28;20045;-79
2021/10/09 01:02:10;;;;;;;44.90;18.20;;;;;;;-149.78;100.00;50297.38;5060961;28;20511;-79
2021/10/09 01:04:37;;;;;;;43.35;18.63;;;;;;;-149.78;100.00;50287.59;5075438;28;20040;-79
2021/10/09 01:07:04;;;;;;;45.95;18.85;;;;;;;-149.78;100.00;50287.59;5053053;28;20036;-79
2021/10/09 01:09:29;;;;;;;47.28;19.23;;;;;;;-149.78;100.00;50256.31;5036156;28;20116;-78
2021/10/09 01:11:55;;;;;;;45.10;18.05;;;;;;;-149.78;100.00;50326.72;5061857;28;20029;-78
2021/10/09 01:14:21;;;;;;;47.65;18.10;;;;;;;-149.78;100.00;50303.25;5064150;28;20433;-79
2021/10/09 01:16:46;;;;;;;43.17;16.95;;;;;;;-149.78;100.00;50279.78;5072132;28;20103;-79
2021/10/09 01:19:12;;;;;;;39.85;16.35;;;;;;;-149.78;100.00;50299.34;5063484;28;20055;-78
2021/10/09 01:21:43;;;;;;;44.38;17.00;;;;;;;-149.78;100.00;50307.16;5065892;28;20070;-79
2021/10/09 01:24:10;;;;;;;40.78;17.10;;;;;;;-149.78;100.00;50297.38;5046631;28;20041;-79
2021/10/09 01:26:36;;;;;;;42.53;17.50;;;;;;;-149.78;100.00;50275.88;5052456;28;20468;-79
2021/10/09 01:29:03;;;;;;;41.50;16.17;;;;;;;-149.78;100.00;50271.97;5057279;28;20128;-78
2021/10/09 01:31:29;;;;;;;38.85;16.45;;;;;;;-149.78;100.00;50270.00;5058611;28;20043;-79
2021/10/09 01:33:55;;;;;;;44.00;17.45;;;;;;;-149.78;100.00;50268.03;5068537;28;20040;-78
2021/10/09 01:36:20;;;;;;;42.17;16.15;;;;;;;-149.78;100.00;50293.47;5063921;28;20033;-79
2021/10/09 01:38:51;;;;;;;41.00;16.92;;;;;;;-149.78;100.00;50295.44;5053746;28;20100;-79
2021/10/09 01:41:18;;;;;;;38.97;15.57;;;;;;;-149.78;100.00;50311.06;5058236;28;20120;-79
2021/10/09 01:43:44;;;;;;;37.92;16.40;;;;;;;-149.78;100.00;50291.50;5069016;28;20032;-78
2021/10/09 01:46:09;;;;;;;39.85;16.05;;;;;;;-149.78;100.00;50279.78;5090242;28;20073;-79
2021/10/09 01:48:38;;;;;;;43.28;15.50;;;;;;;-149.78;100.00;50264.13;5066018;28;20075;-79
2021/10/09 01:51:06;;;;;;;38.03;16.10;;;;;;;-149.78;100.00;50314.97;5067248;28;20054;-79
2021/10/09 01:53:34;;;;;;;35.42;14.75;;;;;;;-149.78;100.00;50303.25;5045646;28;20033;-79
2021/10/09 01:56:00;;;;;;;36.45;15.63;;;;;;;-149.78;100.00;50275.88;5066640;28;20033;-78
2021/10/09 01:58:26;;;;;;;34.67;14.68;;;;;;;-149.78;100.00;50303.25;5067517;28;20029;-79
2021/10/09 02:00:51;;;;;;;36.15;15.02;;;;;;;-149.78;100.00;50307.16;5053929;28;20028;-79
2021/10/09 02:03:19;;;;;;;34.25;14.38;;;;;;;-149.78;100.00;50275.88;5068197;28;20484;-79
2021/10/09 02:05:45;;;;;;;36.80;14.18;;;;;;;-149.78;100.00;50275.88;5063745;28;20056;-80
2021/10/09 02:08:11;;;;;;;31.30;14.38;;;;;;;-149.78;100.00;50295.44;5072316;28;20063;-79
2021/10/09 02:11:01;;;;;;;31.88;13.80;;;;;;;-149.78;100.00;50305.22;5071310;28;20028;-79
2021/10/09 02:13:34;;;;;;;40.53;13.27;;;;;;;-149.78;100.00;50299.34;5059526;28;20049;-79
2021/10/09 02:18:34;;;;;;;28.15;12.57;;;;;;;-149.78;100.00;50295.44;5070913;28;20060;-78
2021/10/09 02:26:29;;;;;;;27.70;13.02;;;;;;;-149.78;100.00;50264.13;5065253;28;20468;-79
2021/10/09 02:28:55;;;;;;;28.05;11.63;;;;;;;-149.78;100.00;50275.88;5067586;28;20035;-79
2021/10/09 02:31:20;;;;;;;28.65;11.93;;;;;;;-149.78;100.00;50301.28;5067680;28;20051;-79
2021/10/09 02:33:46;;;;;;;29.15;11.70;;;;;;;-149.78;100.00;50277.81;5058874;28;20041;-79
2021/10/09 02:36:11;;;;;;;26.73;12.20;;;;;;;-149.78;100.00;50326.72;5046698;28;20044;-79
2021/10/09 02:38:38;;;;;;;25.08;10.93;;;;;;;-149.78;100.00;50283.69;5058827;28;20037;-79
2021/10/09 02:41:03;;;;;;;27.33;11.68;;;;;;;-149.78;100.00;50268.03;5067575;28;20045;-78
2021/10/09 02:43:29;;;;;;;25.88;11.90;;;;;;;-149.78;100.00;50285.66;5062780;28;20067;-78
2021/10/09 02:45:54;;;;;;;27.13;11.98;;;;;;;-149.78;100.00;50293.47;5069205;28;20032;-79
2021/10/09 02:48:20;;;;;;;28.67;11.52;;;;;;;-149.78;100.00;50252.41;5070966;28;20041;-79
2021/10/09 02:50:46;;;;;;;27.63;12.63;;;;;;;-149.78;100.00;50322.81;5069041;28;20033;-79
2021/10/09 02:53:12;;;;;;;29.00;12.30;;;;;;;-149.78;100.00;50275.88;5070021;28;20052;-79
2021/10/09 02:55:38;;;;;;;30.27;12.57;;;;;;;-149.78;100.00;50275.88;5069007;28;20063;-79
2021/10/09 02:58:04;;;;;;;24.00;11.52;;;;;;;-149.78;100.00;50295.44;5067615;28;20560;-79
2021/10/09 03:00:29;;;;;;;27.27;12.15;;;;;;;-149.78;100.00;50279.78;5051361;28;20037;-79
2021/10/09 03:02:55;;;;;;;30.02;10.93;;;;;;;-149.78;100.00;50291.50;5048298;28;20036;-79
2021/10/09 03:05:21;;;;;;;28.05;12.45;;;;;;;-149.78;100.00;50271.97;5070679;28;20032;-79
2021/10/09 03:07:47;;;;;;;29.83;12.13;;;;;;;-149.78;100.00;50295.44;5069207;28;20495;-79
2021/10/09 03:10:13;;;;;;;29.70;13.02;;;;;;;-149.78;100.00;50291.50;5061646;28;20033;-79
2021/10/09 03:12:39;;;;;;;31.20;13.27;;;;;;;-149.78;100.00;50260.22;5069624;28;20097;-79
2021/10/09 03:15:09;;;;;;;32.03;13.38;;;;;;;-149.78;100.00;50303.25;5072045;28;20104;-79
2021/10/09 03:17:34;;;;;;;32.80;13.18;;;;;;;-149.78;100.00;50295.44;5065503;28;20094;-79
2021/10/09 03:20:00;;;;;;;33.97;13.32;;;;;;;-149.78;100.00;50252.41;5067291;28;20033;-78
2021/10/09 03:22:25;;;;;;;28.23;12.60;;;;;;;-149.78;100.00;50303.25;5068972;28;20456;-79
2021/10/09 03:24:52;;;;;;;29.95;13.48;;;;;;;-149.78;100.00;50264.13;5073553;28;20036;-79
2021/10/09 03:27:18;;;;;;;31.02;13.48;;;;;;;-149.78;100.00;50297.38;5061490;28;20048;-78
2021/10/09 03:29:43;;;;;;;35.33;14.45;;;;;;;-149.78;100.00;50287.59;5057624;28;20041;-78
2021/10/09 03:32:09;;;;;;;34.47;14.20;;;;;;;-149.78;100.00;50275.88;5068199;28;20032;-78
2021/10/09 03:34:35;;;;;;;34.72;14.90;;;;;;;-149.78;100.00;50277.81;5060520;28;20067;-78
2021/10/09 03:37:03;;;;;;;33.92;14.05;;;;;;;-149.78;100.00;50271.97;5059101;28;20024;-79
2021/10/09 03:39:30;;;;;;;27.92;11.45;;;;;;;-149.78;100.00;50279.78;5061062;28;20041;-79
2021/10/09 03:42:04;;;;;;;25.17;11.25;;;;;;;-149.78;100.00;50271.97;5064836;28;20392;-78
2021/10/09 03:44:34;;;;;;;27.60;12.05;;;;;;;-149.78;100.00;50311.06;5051382;28;20116;-78
2021/10/09 03:47:15;;;;;;;28.63;11.70;;;;;;;-149.78;100.00;50283.69;5052498;28;20029;-79
2021/10/09 03:49:48;;;;;;;25.38;11.65;;;;;;;-149.78;100.00;50291.50;5066712;28;20047;-79
2021/10/09 03:55:10;;;;;;;30.45;12.30;;;;;;;-149.78;100.00;50295.44;5066475;28;20045;-79
2021/10/09 03:57:37;;;;;;;31.48;12.50;;;;;;;-149.78;100.00;50295.44;5065845;28;20528;-79
2021/10/09 04:00:08;;;;;;;26.45;11.90;;;;;;;-149.78;100.00;50301.28;5066101;28;20044;-79
2021/10/09 04:02:33;;;;;;;36.67;15.25;;;;;;;-149.78;100.00;50260.22;5061125;28;20452;-79
2021/10/09 04:04:59;;;;;;;36.58;15.38;;;;;;;-149.78;100.00;50297.38;5070496;28;20036;-79
2021/10/09 04:07:25;;;;;;;39.40;15.48;;;;;;;-149.78;100.00;50303.25;5073852;28;20376;-79
2021/10/09 04:09:51;;;;;;;42.63;16.80;;;;;;;-149.78;100.00;50303.25;5072340;28;20036;-78
2021/10/09 04:12:16;;;;;;;43.95;17.02;;;;;;;-149.78;100.00;50281.75;5050681;28;20511;-79
2021/10/09 04:14:43;;;;;;;47.03;17.88;;;;;;;-149.78;100.00;50311.06;5071046;28;20090;-78
2021/10/09 04:17:08;;;;;;;45.30;16.65;;;;;;;-149.78;100.00;50271.97;5062845;28;20068;-78
2021/10/09 04:19:34;;;;;;;42.55;16.58;;;;;;;-149.78;100.00;50307.16;5056432;28;20464;-79
2021/10/09 04:22:01;;;;;;;45.42;17.30;;;;;;;-149.78;100.00;50320.84;5058920;28;20076;-79
2021/10/09 04:24:26;;;;;;;45.13;17.25;;;;;;;-149.78;100.00;50268.03;5063814;28;20445;-78
2021/10/09 04:26:52;;;;;;;45.05;17.23;;;;;;;-149.78;100.00;50299.34;5070750;28;20123;-78
2021/10/09 04:29:18;;;;;;;49.17;17.13;;;;;;;-149.78;100.00;50283.69;5071730;28;20033;-78
2021/10/09 04:31:44;;;;;;;51.08;17.85;;;;;;;-149.78;100.00;50354.09;5068582;28;20396;-79
2021/10/09 04:34:10;;;;;;;43.05;16.60;;;;;;;-149.78;100.00;50283.69;5053231;28;20455;-79
2021/10/09 04:36:35;;;;;;;45.25;17.83;;;;;;;-149.78;100.00;50311.06;5064793;28;20036;-78
2021/10/09 04:39:01;;;;;;;49.60;17.38;;;;;;;-149.78;100.00;50303.25;5052647;28;20362;-78
2021/10/09 04:41:27;;;;;;;50.75;18.15;;;;;;;-149.78;100.00;50307.16;5072553;28;20036;-79
2021/10/09 04:43:53;;;;;;;42.05;16.05;;;;;;;-149.78;100.00;50291.50;5069174;28;20488;-79
2021/10/09 04:46:18;;;;;;;47.50;16.63;;;;;;;-149.78;100.00;50303.25;5072639;28;20037;-78
2021/10/09 04:48:44;;;;;;;46.58;16.60;;;;;;;-149.78;100.00;50307.16;5066329;28;20032;-78
2021/10/09 04:51:09;;;;;;;47.42;16.83;;;;;;;-149.78;100.00;50332.59;5070425;28;20032;-79
2021/10/09 04:53:35;;;;;;;40.17;16.55;;;;;;;-149.78;100.00;50299.34;5073980;28;20067;-79
2021/10/09 04:56:02;;;;;;;39.22;16.70;;;;;;;-149.78;100.00;50348.22;5070448;28;20395;-79
2021/10/09 04:58:27;;;;;;;46.20;16.85;;;;;;;-149.78;100.00;50299.34;5062940;28;20029;-78
2021/10/09 05:00:53;;;;;;;41.60;15.60;;;;;;;-149.78;100.00;50295.44;5067679;28;20483;-78
2021/10/09 05:03:19;;;;;;;43.22;15.77;;;;;;;-149.78;100.00;50268.03;5067674;28;20131;-77
2021/10/09 05:05:45;;;;;;;42.88;16.02;;;;;;;-149.78;100.00;50326.72;5038373;28;20097;-79
2021/10/09 05:08:11;;;;;;;44.92;16.67;;;;;;;-149.78;100.00;50309.13;5058230;28;20540;-78
2021/10/09 05:10:38;;;;;;;43.55;16.75;;;;;;;-149.78;100.00;50293.47;5070430;28;20032;-78
2021/10/09 05:13:04;;;;;;;49.05;17.38;;;;;;;-149.78;100.00;50287.59;5077587;28;20419;-78
2021/10/09 05:15:31;;;;;;;50.75;16.95;;;;;;;-149.78;100.00;50291.50;5067684;28;20079;-78
2021/10/09 05:17:56;;;;;;;44.72;17.25;;;;;;;-149.78;100.00;50295.44;5064074;28;20036;-78
2021/10/09 05:20:22;;;;;;;44.72;16.38;;;;;;;-149.78;100.00;50289.56;5065163;28;20426;-78
2021/10/09 05:22:48;;;;;;;52.60;17.58;;;;;;;-149.78;100.00;50314.97;5066893;28;20374;-78
2021/10/09 05:25:14;;;;;;;44.80;16.55;;;;;;;-149.78;100.00;50299.34;5067030;28;20436;-78
2021/10/09 05:27:45;;;;;;;42.95;15.25;;;;;;;-149.78;100.00;50314.97;5070701;28;20028;-78
2021/10/09 05:30:13;;;;;;;42.25;15.40;;;;;;;-149.78;100.00;50326.72;5072217;28;20050;-78
2021/10/09 05:32:48;;;;;;;46.95;17.65;;;;;;;-149.78;100.00;50303.25;5070652;28;20514;-78
2021/10/09 05:35:14;;;;;;;43.65;16.88;;;;;;;-149.78;100.00;50295.44;5067687;28;20060;-79
2021/10/09 05:37:40;;;;;;;46.30;17.60;;;;;;;-149.78;100.00;50311.06;5067533;28;20033;-79
2021/10/09 05:40:07;;;;;;;44.20;16.60;;;;;;;-149.78;100.00;50318.91;5061295;28;20448;-78
2021/10/09 05:42:33;;;;;;;52.60;16.67;;;;;;;-149.78;100.00;50291.50;5070583;28;20032;-79
2021/10/09 05:44:59;;;;;;;43.60;16.55;;;;;;;-149.78;100.00;50311.06;5064041;28;20040;-78
2021/10/09 05:47:27;;;;;;;48.15;15.90;;;;;;;-149.78;100.00;50301.28;5064404;28;20134;-78
2021/10/09 05:49:55;;;;;;;42.38;16.23;;;;;;;-149.78;100.00;50330.63;5065615;28;20415;-78
2021/10/09 05:52:37;;;;;;;46.60;15.10;;;;;;;-149.78;100.00;50330.63;5061396;28;20056;-78
2021/10/09 05:55:20;;;;;;;47.47;16.35;;;;;;;-149.78;100.00;50303.25;5064614;28;20040;-78
2021/10/09 06:31:30;;;;;;;46.45;16.77;;;;;;;-149.78;100.00;50346.28;5058556;28;20041;-74
2021/10/09 06:45:00;;;;;;;46.63;17.27;;;;;;;-149.78;100.00;50301.28;5053102;28;20069;-74
2021/10/09 06:50:18;;;;;;;48.03;16.60;;;;;;;-149.78;100.00;50322.81;5052389;28;20133;-75
2021/10/09 07:00:57;;;;;;;48.88;16.48;;;;;;;-149.78;100.00;50324.75;5060862;28;20044;-78
2021/10/09 07:03:23;;;;;;;51.58;16.15;;;;;;;-149.78;100.00;50299.34;5062120;28;20497;-71
2021/10/09 07:05:50;;;;;;;49.38;15.60;;;;;;;-149.78;100.00;50305.22;5061667;28;20025;-76
2021/10/09 07:08:15;;;;;;;42.17;14.63;;;;;;;-149.78;100.00;50318.91;5060348;28;20431;-74
2021/10/09 07:10:50;;;;;;;40.35;13.95;;;;;;;-149.78;100.00;50326.72;5059169;28;20391;-75
2021/10/09 07:13:16;;;;;;;44.00;14.73;;;;;;;-149.78;100.00;50303.25;5063305;28;20115;-73
2021/10/09 07:15:43;;;;;;;45.15;14.88;;;;;;;-149.78;100.00;50301.28;5066748;28;20034;-75
2021/10/09 07:18:10;;;;;;;40.45;14.43;;;;;;;-149.78;100.00;50326.72;5061812;28;20064;-74
2021/10/09 07:20:37;;;;;;;41.88;13.82;;;;;;;-149.78;100.00;50283.69;5059679;28;20374;-74
2021/10/09 07:23:03;;;;;;;44.78;14.18;;;;;;;-149.78;100.00;50338.44;5054862;28;20503;-73
2021/10/09 07:25:29;;;;;;;40.30;13.82;;;;;;;-149.78;100.00;50311.06;5048170;28;20068;-73
2021/10/09 07:27:55;;;;;;;43.20;14.82;;;;;;;-149.78;100.00;50320.84;5061882;28;20366;-72
2021/10/09 07:30:20;;;;;;;39.20;14.23;;;;;;;-149.78;100.00;50338.44;5060923;28;20037;-73
2021/10/09 07:32:47;;;;;;;37.63;14.35;;;;;;;-149.78;100.00;50338.44;5062044;28;20037;-73
2021/10/09 07:35:13;;;;;;;36.72;13.73;;;;;;;-149.78;100.00;50295.44;5067089;28;20036;-73
2021/10/09 07:37:39;;;;;;;42.35;14.85;;;;;;;-149.78;100.00;50307.16;5063669;28;20036;-74
2021/10/09 07:40:06;;;;;;;41.40;14.60;;;;;;;-149.78;100.00;50268.03;5069660;28;20036;-69
2021/10/09 07:42:32;;;;;;;38.65;14.45;;;;;;;-149.78;100.00;50330.63;5055611;28;20502;-74
2021/10/09 07:44:57;;;;;;;40.78;13.80;;;;;;;-149.78;100.00;50271.97;5068325;28;20029;-74
2021/10/09 07:47:23;;;;;;;42.70;15.15;;;;;;;-149.78;100.00;50342.38;5064329;28;20028;-74
2021/10/09 07:49:49;;;;;;;45.20;13.90;;;;;;;-149.78;100.00;50326.72;5047554;28;20080;-74
2021/10/09 07:52:15;;;;;;;46.25;15.50;;;;;;;-149.78;100.00;50301.28;5063165;28;20060;-73
2021/10/09 07:54:41;;;;;;;38.35;13.52;;;;;;;-149.78;100.00;50283.69;5058819;28;20033;-74
2021/10/09 07:57:07;;;;;;;34.35;13.50;;;;;;;-149.78;100.00;50297.38;5061185;28;20477;-74
2021/10/09 07:59:34;;;;;;;34.38;13.00;;;;;;;-149.78;100.00;50320.84;5060210;28;20153;-75
2021/10/09 08:02:00;;;;;;;34.72;12.57;;;;;;;-149.78;100.00;50287.59;5064068;28;20043;-70
2021/10/09 08:04:30;;;;;;;35.13;13.50;;;;;;;-149.78;100.00;50318.91;5063779;28;20037;-74
2021/10/09 08:06:56;;;;;;;27.83;11.82;;;;;;;-149.78;100.00;50301.28;5065665;28;20032;-74
2021/10/09 08:09:25;;;;;;;27.98;10.60;;;;;;;-149.78;100.00;50299.34;5066404;28;20032;-74
2021/10/09 08:11:51;;;;;;;31.48;10.80;;;;;;;-149.78;100.00;50295.44;5069100;28;20056;-73
2021/10/09 08:14:18;;;;;;;25.15;10.00;;;;;;;-149.78;100.00;50287.59;5063273;28;20519;-75
2021/10/09 08:16:44;;;;;;;28.73;10.52;;;;;;;-149.78;100.00;50275.88;5060865;28;20044;-75
2021/10/09 08:19:10;;;;;;;27.52;10.25;;;;;;;-149.78;100.00;50301.28;5060365;28;20149;-75
2021/10/09 08:21:40;;;;;;;24.88;9.75;;;;;;;-149.78;100.00;50252.41;5057761;28;20151;-75
2021/10/09 08:24:31;;;;;;;22.58;8.90;;;;;;;-149.78;100.00;50305.22;5058230;28;20033;-73
2021/10/09 08:40:25;;;;;;;40.08;12.80;;;;;;;-149.78;100.00;50299.34;5065053;28;20120;-70
2021/10/09 08:42:50;;;;;;;35.30;11.45;;;;;;;-149.78;100.00;50334.53;5060883;28;20120;-73
2021/10/09 08:45:16;;;;;;;37.63;12.35;;;;;;;-149.78;100.00;50295.44;5053427;28;20036;-73
2021/10/09 08:47:44;;;;;;;32.67;13.00;;;;;;;-149.78;100.00;50314.97;5066566;28;20033;-68
2021/10/09 08:50:14;;;;;;;36.13;13.20;;;;;;;-149.78;100.00;50289.56;5063757;28;20365;-71
2021/10/09 08:53:07;;;;;;;32.63;11.70;;;;;;;-149.78;100.00;50314.97;5057004;28;20041;-73
2021/10/09 08:55:35;;;;;;;35.35;12.32;;;;;;;-149.78;100.00;50283.69;5059355;28;20163;-74
2021/10/09 08:58:06;;;;;;;33.58;12.20;;;;;;;-149.78;100.00;50295.44;5064397;28;20024;-74
2021/10/09 09:00:58;;;;;;;33.25;12.55;;;;;;;-149.78;100.00;50289.56;5071495;28;20032;-74
2021/10/09 09:03:33;;;;;;;34.13;12.23;;;;;;;-149.78;100.00;50287.59;5079858;28;20079;-74
2021/10/09 09:06:15;;;;;;;30.00;11.38;;;;;;;-149.78;100.00;50309.13;5066267;28;20056;-75
2021/10/09 09:09:14;;;;;;;31.38;10.85;;;;;;;-149.78;100.00;50275.88;5083799;28;20065;-73
2021/10/09 09:26:19;;;;;;;36.60;13.63;;;;;;;-149.78;100.00;50289.56;5064858;28;20403;-75
2021/10/09 09:31:49;;;;;;;26.88;11.32;;;;;;;-149.78;100.00;50256.31;5063614;28;20025;-76
2021/10/09 09:37:04;;;;;;;35.08;12.60;;;;;;;-149.78;100.00;50275.88;5064345;28;20448;-77
2021/10/09 09:39:38;;;;;;;32.88;12.68;;;;;;;-149.78;100.00;50266.09;5060968;28;20380;-76
2021/10/09 09:42:04;;;;;;;26.65;11.20;;;;;;;-149.78;100.00;50258.28;5066278;28;20035;-74
2021/10/09 09:44:30;;;;;;;25.17;10.63;;;;;;;-149.78;100.00;50264.13;5064082;28;20033;-75
2021/10/09 09:47:03;;;;;;;32.08;11.93;;;;;;;-149.78;100.00;50232.84;5062101;28;20407;-76
2021/10/09 09:49:30;;;;;;;27.52;11.13;;;;;;;-149.78;100.00;50248.50;5063800;28;20159;-76
2021/10/09 09:51:57;;;;;;;24.50;10.02;;;;;;;-149.78;100.00;50260.22;5062698;28;20423;-77
2021/10/09 09:54:28;;;;;;;25.70;11.65;;;;;;;-149.78;100.00;50258.28;5063963;28;20039;-77
2021/10/09 09:57:02;;;;;;;23.85;9.98;;;;;;;-149.78;100.00;50287.59;5068528;28;20035;-78
2021/10/09 09:59:31;;;;;;;26.30;10.90;;;;;;;-149.78;100.00;50248.50;5062486;28;20047;-77
2021/10/09 10:02:02;;;;;;;22.17;9.93;;;;;;;-149.78;100.00;50271.97;5064847;28;20021;-76
2021/10/09 10:04:33;;;;;;;22.98;10.05;;;;;;;-149.78;100.00;50268.03;5062086;28;20561;-77
2021/10/09 10:07:01;;;;;;;24.70;9.38;;;;;;;-149.78;100.00;50260.22;5069277;28;20060;-75
2021/10/09 10:09:28;;;;;;;24.08;10.15;;;;;;;-149.78;100.00;50303.25;5064254;28;20033;-76
2021/10/09 10:12:00;;;;;;;24.00;10.38;;;;;;;-149.78;100.00;50258.28;5063314;28;20101;-75
2021/10/09 10:14:30;;;;;;;;;;;;;;;-149.78;100.00;50217.19;5060686;28;20474;-76
2021/10/09 10:16:58;;;;;;;19.42;8.98;;;;;;;-149.78;100.00;50268.03;5060975;28;20360;-76
2021/10/09 10:19:48;;;;;;;20.40;8.98;;;;;;;-149.78;100.00;50236.75;5062881;28;20050;-76
2021/10/09 10:22:14;;;;;;;20.33;9.40;;;;;;;-149.78;100.00;50281.75;5066070;28;20024;-75
2021/10/09 10:24:45;;;;;;;21.38;9.73;;;;;;;-149.78;100.00;50232.84;5060026;28;20032;-76
2021/10/09 10:27:40;;;;;;;20.10;9.13;;;;;;;-149.78;100.00;50264.13;5059755;28;20025;-75
2021/10/09 10:30:15;;;;;;;23.40;9.57;;;;;;;-149.78;100.00;50236.75;5061770;28;20060;-75
2021/10/09 10:32:52;;;;;;;20.65;8.48;;;;;;;-149.78;100.00;50264.13;5053460;28;20055;-73
2021/10/09 10:35:30;;;;;;;22.48;9.82;;;;;;;-149.78;100.00;50240.66;5053021;28;20381;-73
2021/10/09 10:38:37;;;;;;;20.30;9.13;;;;;;;-149.78;100.00;50217.19;5069943;28;20028;-73
2021/10/09 10:41:05;;;;;;;18.55;9.23;;;;;;;-149.78;100.00;50209.38;5062528;28;20036;-74
2021/10/09 10:45:57;;;;;;;15.32;8.38;;;;;;;-149.78;100.00;50217.19;5052956;28;20036;-75
2021/10/09 10:48:42;;;;;;;16.85;7.53;;;;;;;-149.78;100.00;50205.47;5063014;28;20029;-75
2021/10/09 10:51:17;;;;;;;17.23;8.20;;;;;;;-149.78;100.00;50250.44;5065296;28;20040;-74
2021/10/09 10:54:09;;;;;;;17.35;8.35;;;;;;;-149.78;100.00;50248.50;5069293;28;20512;-75
2021/10/09 10:56:36;;;;;;;17.55;8.27;;;;;;;-149.78;100.00;50183.97;5056414;28;20491;-74
2021/10/09 10:59:28;;;;;;;19.50;8.55;;;;;;;-149.78;100.00;50213.28;5054793;28;20168;-74
2021/10/09 11:02:06;;;;;;;17.42;8.10;;;;;;;-149.78;100.00;50236.75;5069502;28;20034;-75
2021/10/09 11:04:36;;;;;;;15.82;7.60;;;;;;;-149.78;100.00;50240.66;5064277;28;20079;-75
2021/10/09 11:07:03;;;;;;;18.05;8.00;;;;;;;-149.78;100.00;50252.41;5062473;28;20418;-74
2021/10/09 11:09:29;;;;;;;15.23;8.02;;;;;;;-149.78;100.00;50264.13;5066406;28;20091;-74
2021/10/09 11:11:55;;;;;;;20.77;8.40;;;;;;;-149.78;100.00;50266.09;5062463;28;20512;-74
2021/10/09 11:14:22;;;;;;;17.48;8.45;;;;;;;-149.78;100.00;50228.94;5067037;28;20064;-74
2021/10/09 11:16:48;;;;;;;14.30;7.10;;;;;;;-149.78;100.00;50240.66;5057731;28;20059;-74
2021/10/09 11:19:15;;;;;;;12.23;6.47;;;;;;;-149.78;100.00;50264.13;5067804;28;20075;-74
2021/10/09 11:22:07;;;;;;;16.00;7.40;;;;;;;-149.78;100.00;50275.88;5052443;28;20485;-74
2021/10/09 11:24:45;;;;;;;14.80;7.50;;;;;;;-149.78;100.00;50244.59;5053053;28;20058;-74
2021/10/09 11:27:12;;;;;;;17.70;8.13;;;;;;;-149.78;100.00;50236.75;5052685;28;20024;-74
2021/10/09 11:29:38;;;;;;;18.45;8.73;;;;;;;-149.78;100.00;50236.75;5052511;28;20028;-74
2021/10/09 11:32:06;;;;;;;17.92;8.38;;;;;;;-149.78;100.00;50252.41;5054418;28;20068;-73
2021/10/09 11:34:46;;;;;;;15.43;7.45;;;;;;;-149.78;100.00;50258.28;5056242;28;20087;-72
2021/10/09 11:37:16;;;;;;;10.75;6.28;;;;;;;-149.78;100.00;50291.50;5054713;28;20041;-74
2021/10/09 11:39:51;;;;;;;10.32;5.25;;;;;;;-149.78;100.00;50271.97;5054045;28;20398;-74
2021/10/09 11:42:23;;;;;;;11.15;5.93;;;;;;;-149.78;100.00;50285.66;5058761;28;20107;-74
2021/10/09 11:53:39;;;;;;;22.75;12.02;;;;;;;-149.78;100.00;50256.31;5055191;28;20068;-73
2021/10/09 11:56:07;;;;;;;26.65;11.77;;;;;;;-149.78;100.00;50256.31;5060779;28;20082;-73
2021/10/09 11:58:44;;;;;;;25.15;11.57;;;;;;;-149.78;100.00;50244.59;5070722;28;20116;-72
2021/10/09 12:01:28;;;;;;;20.00;9.82;;;;;;;-149.78;100.00;50232.84;5071561;28;20059;-72
2021/10/09 12:03:55;;;;;;;18.92;9.80;;;;;;;-149.78;100.00;50275.88;5063385;28;20106;-73
2021/10/09 12:06:20;;;;;;;18.77;9.45;;;;;;;-149.78;100.00;50268.03;5056447;28;20074;-73
2021/10/09 12:08:58;;;;;;;17.40;8.90;;;;;;;-149.78;100.00;50260.22;5064502;28;20040;-73
2021/10/09 12:11:31;;;;;;;16.38;8.55;;;;;;;-149.78;100.00;50268.03;5071543;28;20094;-72
2021/10/09 12:14:00;;;;;;;19.00;8.43;;;;;;;-149.78;100.00;50262.19;5058384;28;20139;-73
2021/10/09 12:16:29;;;;;;;12.15;6.82;;;;;;;-149.78;100.00;50240.66;5054255;28;20103;-73
2021/10/09 12:19:01;;;;;;;14.27;7.35;;;;;;;-149.78;100.00;50244.59;5059802;28;20469;-73
2021/10/09 12:21:28;;;;;;;;;;;;;;;-149.78;100.00;50205.47;5055661;28;20032;-73
2021/10/09 12:23:55;;;;;;;13.07;6.93;;;;;;;-149.78;100.00;50287.59;5054670;28;19958;-72
2021/10/09 12:26:23;;;;;;;13.13;7.35;;;;;;;-149.78;100.00;50260.22;5069667;28;20037;-72
2021/10/09 12:29:13;;;;;;;13.57;6.57;;;;;;;-149.78;100.00;50264.13;5066935;28;20472;-72
2021/10/09 12:31:44;;;;;;;11.18;5.32;;;;;;;-149.78;100.00;50226.97;5067114;28;20076;-73
2021/10/09 12:34:30;;;;;;;12.82;6.63;;;;;;;-149.78;100.00;50264.13;5054493;28;20035;-73
2021/10/09 12:37:10;;;;;;;16.05;6.88;;;;;;;-149.78;100.00;50291.50;5056818;28;20044;-72
2021/10/09 12:39:35;;;;;;;13.50;7.00;;;;;;;-149.78;100.00;50252.41;5082641;28;20033;-73
2021/10/09 12:42:01;;;;;;;10.18;5.40;;;;;;;-149.78;100.00;50283.69;5060877;28;20097;-72
2021/10/09 12:44:27;;;;;;;12.02;6.45;;;;;;;-149.78;100.00;50268.03;5060266;28;20140;-74
2021/10/09 12:46:53;;;;;;;12.90;6.35;;;;;;;-149.78;100.00;50236.75;5057530;28;20045;-72
2021/10/09 12:49:19;;;;;;;9.80;5.82;;;;;;;-149.78;100.00;50264.13;5072235;28;20036;-74
2021/10/09 12:51:47;;;;;;;11.38;5.50;;;;;;;-149.78;100.00;50303.25;5068401;28;20369;-72
2021/10/09 12:54:17;;;;;;;10.13;5.30;;;;;;;-149.78;100.00;50252.41;5056991;28;20036;-74
2021/10/09 12:56:42;;;;;;;7.60;4.60;;;;;;;-149.78;100.00;50260.22;5058388;28;20174;-74